Shady Glen, California
Current Conditions -  °F | °C
As of 5:20 AM on Friday 31 Oct 2014 (Local Time) from KGOO Reporting Station
Few Clouds Few Clouds  
Wind Chill: 50°   Ceiling: Unl
Heat Index: 50°   Visibility: 10mi
Dew Point: 43°   Wind: 6mph
Humidity: 76%   Direction: 100°E
Pressure: 29.95"   Gusts: NA
Location:  39.0937°N, 120.92°W
Report Text: KGOO 311220Z AUTO 10005KT 10SM FEW110 10/06 A2995 RMK AO1
Loading
Personal Weather Stations






























Interactive Weather Map
Tropical Storm Tracking
New forecast layout! Learn more

10-Day Weather Forecast

Advertisements
Track Severe Weather on mobile